createdAt,value
2022-07-29T00:02:24.229Z,51.0
2022-07-29T00:07:24.184Z,51.0
2022-07-29T00:12:25.759Z,51.0
2022-07-29T00:17:24.116Z,51.0
2022-07-29T00:22:24.114Z,51.0
2022-07-29T00:27:24.162Z,51.0
2022-07-29T00:32:24.119Z,51.0
2022-07-29T00:37:24.117Z,51.0
2022-07-29T00:42:24.123Z,51.0
2022-07-29T00:47:24.121Z,51.5
2022-07-29T00:52:24.118Z,52.0
2022-07-29T00:57:24.125Z,52.5
2022-07-29T01:02:24.213Z,53.0
2022-07-29T01:07:24.129Z,54.0
2022-07-29T01:12:24.127Z,54.5
2022-07-29T01:17:24.138Z,55.0
2022-07-29T01:22:24.129Z,55.5
2022-07-29T01:27:24.146Z,56.0
2022-07-29T01:32:28.766Z,58.0
2022-07-29T01:37:24.135Z,58.5
2022-07-29T01:42:24.143Z,59.5
2022-07-29T01:47:24.131Z,60.0
2022-07-29T01:52:24.132Z,60.5
2022-07-29T01:57:24.139Z,60.5
2022-07-29T02:02:24.143Z,61.0
2022-07-29T02:07:24.130Z,61.0
2022-07-29T02:12:24.150Z,62.0
2022-07-29T02:17:24.138Z,63.0
2022-07-29T02:22:24.167Z,64.0
2022-07-29T02:27:24.140Z,65.0
2022-07-29T02:32:24.142Z,65.5
2022-07-29T02:37:24.144Z,65.5
2022-07-29T02:42:24.142Z,65.5
2022-07-29T02:47:24.149Z,65.5
2022-07-29T02:52:24.144Z,66.0
2022-07-29T02:57:24.148Z,66.0
2022-07-29T03:02:24.160Z,67.0
2022-07-29T03:07:24.146Z,67.0
2022-07-29T03:12:24.151Z,66.5
2022-07-29T03:17:24.151Z,67.0
2022-07-29T03:22:24.162Z,67.0
2022-07-29T03:27:24.154Z,67.0
2022-07-29T03:32:25.338Z,67.0
2022-07-29T03:37:24.163Z,67.0
2022-07-29T03:42:24.161Z,67.0
2022-07-29T03:47:39.308Z,67.0
2022-07-29T03:52:24.167Z,67.5
2022-07-29T03:57:24.169Z,67.5
2022-07-29T04:02:28.712Z,67.5
2022-07-29T04:07:24.171Z,67.5
2022-07-29T04:12:24.173Z,68.0
2022-07-29T04:17:24.176Z,68.0
2022-07-29T04:22:24.178Z,68.0
2022-07-29T04:27:24.177Z,68.5
2022-07-29T04:32:24.184Z,68.5
2022-07-29T04:37:24.181Z,69.0
2022-07-29T04:42:25.243Z,69.0
2022-07-29T04:47:24.182Z,69.0
2022-07-29T04:52:24.190Z,69.5
2022-07-29T04:57:24.189Z,69.5
2022-07-29T05:02:24.306Z,70.0
2022-07-29T05:07:24.188Z,70.0
2022-07-29T05:12:24.190Z,70.0
2022-07-29T05:17:24.197Z,70.0
2022-07-29T05:22:24.200Z,70.0
2022-07-29T05:27:24.202Z,70.0
2022-07-29T05:32:24.201Z,70.5
2022-07-29T05:37:24.199Z,70.5
2022-07-29T05:42:24.221Z,71.0
2022-07-29T05:47:24.222Z,70.5
2022-07-29T05:52:24.203Z,70.5
2022-07-29T05:57:24.210Z,71.0
2022-07-29T06:02:24.207Z,71.0
2022-07-29T06:07:24.209Z,71.0
2022-07-29T06:12:24.226Z,71.0
2022-07-29T06:17:24.216Z,70.5
2022-07-29T06:22:24.222Z,71.0
2022-07-29T06:27:24.232Z,70.5
2022-07-29T06:32:27.390Z,70.5
2022-07-29T06:37:24.236Z,70.5
2022-07-29T06:42:24.224Z,71.0
2022-07-29T06:47:24.220Z,71.0
2022-07-29T06:52:24.236Z,71.0
2022-07-29T06:57:24.227Z,70.5
2022-07-29T07:02:24.310Z,71.0
2022-07-29T07:07:24.235Z,71.0
2022-07-29T07:12:24.234Z,71.0
2022-07-29T07:17:24.240Z,71.0
2022-07-29T07:22:24.234Z,71.0
2022-07-29T07:27:24.243Z,71.5
2022-07-29T07:32:24.319Z,71.0
2022-07-29T07:37:24.265Z,71.0
2022-07-29T07:42:24.247Z,71.0
2022-07-29T07:47:24.278Z,71.0
2022-07-29T07:52:24.248Z,71.5
2022-07-29T07:57:24.257Z,71.0
2022-07-29T08:02:24.293Z,71.0
2022-07-29T08:07:24.260Z,70.5
2022-07-29T08:12:24.256Z,70.5
2022-07-29T08:17:24.259Z,70.5
2022-07-29T08:22:24.267Z,70.5
2022-07-29T08:27:41.773Z,70.0
2022-07-29T08:32:50.856Z,70.0
2022-07-29T08:37:24.275Z,70.0
2022-07-29T08:42:24.276Z,69.5
2022-07-29T08:47:24.285Z,69.0
2022-07-29T08:52:24.292Z,68.0
2022-07-29T08:57:24.293Z,67.5
2022-07-29T09:02:24.300Z,66.5
2022-07-29T09:07:24.294Z,66.0
2022-07-29T09:12:28.837Z,66.0
2022-07-29T09:17:24.374Z,64.5
2022-07-29T09:22:24.309Z,64.0
2022-07-29T09:27:24.312Z,64.5
2022-07-29T09:32:24.304Z,64.0
2022-07-29T09:37:24.311Z,63.5
2022-07-29T09:42:24.318Z,62.5
2022-07-29T09:47:24.316Z,62.5
2022-07-29T09:52:24.319Z,62.0
2022-07-29T10:07:24.335Z,60.5
2022-07-29T10:12:24.331Z,59.0
2022-07-29T10:17:24.334Z,59.5
2022-07-29T10:22:51.537Z,59.0
2022-07-29T10:27:24.340Z,59.0
2022-07-29T10:32:24.341Z,59.0
2022-07-29T10:37:24.371Z,58.5
2022-07-29T10:42:29.765Z,57.5
2022-07-29T10:47:24.355Z,57.0
2022-07-29T10:52:26.621Z,56.5
2022-07-29T11:02:42.226Z,55.0
2022-07-29T11:07:24.393Z,54.5
2022-07-29T11:12:24.370Z,54.0
2022-07-29T11:17:24.363Z,53.5
2022-07-29T11:22:25.549Z,52.5
2022-07-29T11:27:28.446Z,53.0
2022-07-29T11:32:24.377Z,53.5
2022-07-29T11:37:28.067Z,53.0
2022-07-29T11:42:32.301Z,52.5
2022-07-29T11:47:24.436Z,51.0
2022-07-29T11:52:24.384Z,51.0
2022-07-29T11:57:36.182Z,50.0
2022-07-29T12:02:37.472Z,50.5
2022-07-29T12:07:24.406Z,49.5
2022-07-29T12:12:24.490Z,50.0
2022-07-29T12:17:24.403Z,49.0
2022-07-29T12:22:24.419Z,49.0
2022-07-29T12:27:29.462Z,48.5
2022-07-29T12:32:24.456Z,48.5
2022-07-29T12:37:30.874Z,48.5
2022-07-29T12:42:24.418Z,48.0
2022-07-29T12:47:24.441Z,48.5
2022-07-29T12:52:24.419Z,47.5
2022-07-29T12:57:24.421Z,48.0
2022-07-29T13:02:24.441Z,47.5
2022-07-29T13:07:54.364Z,47.5
2022-07-29T13:12:24.445Z,47.0
2022-07-29T13:17:24.432Z,46.0
2022-07-29T13:22:24.439Z,46.0
2022-07-29T13:27:24.438Z,45.5
2022-07-29T13:32:27.768Z,44.5
2022-07-29T13:37:24.441Z,44.0
2022-07-29T13:42:24.447Z,43.5
2022-07-29T13:47:32.165Z,43.0
2022-07-29T13:52:24.455Z,42.5
2022-07-29T13:57:24.456Z,42.0
2022-07-29T14:02:26.094Z,42.0
2022-07-29T14:07:24.473Z,41.5
2022-07-29T14:12:24.459Z,42.0
2022-07-29T14:17:24.573Z,40.5
2022-07-29T14:22:24.622Z,40.5
2022-07-29T14:27:37.274Z,40.5
2022-07-29T14:32:24.484Z,40.0
2022-07-29T14:37:24.475Z,39.0
2022-07-29T14:42:24.481Z,39.0
2022-07-29T14:52:24.485Z,39.0
2022-07-29T14:57:24.489Z,38.5
2022-07-29T15:02:40.044Z,38.0
2022-07-29T15:07:24.481Z,37.5
2022-07-29T15:12:24.499Z,38.0
2022-07-29T15:17:24.504Z,37.5
2022-07-29T15:22:24.490Z,37.5
2022-07-29T15:27:24.512Z,37.0
2022-07-29T15:32:24.433Z,36.0
2022-07-29T15:37:24.443Z,36.5
2022-07-29T15:42:24.499Z,36.5
2022-07-29T15:47:24.504Z,37.0
2022-07-29T15:52:25.693Z,37.5
2022-07-29T15:57:24.735Z,38.0
2022-07-29T16:02:24.503Z,38.5
2022-07-29T16:07:31.273Z,39.0
2022-07-29T16:12:24.518Z,39.0
2022-07-29T16:17:24.514Z,39.5
2022-07-29T16:22:24.512Z,39.5
2022-07-29T16:27:24.508Z,40.0
2022-07-29T16:32:24.523Z,40.5
2022-07-29T16:37:24.512Z,40.5
2022-07-29T16:42:44.443Z,40.0
2022-07-29T16:47:24.514Z,40.5
2022-07-29T16:52:24.525Z,41.0
2022-07-29T16:57:24.523Z,41.0
2022-07-29T17:02:24.552Z,41.5
2022-07-29T17:07:24.535Z,41.5
2022-07-29T17:12:24.522Z,42.0
2022-07-29T17:17:38.463Z,42.5
2022-07-29T17:22:24.531Z,41.5
2022-07-29T17:27:24.539Z,41.0
2022-07-29T17:32:24.544Z,40.5
2022-07-29T17:37:24.540Z,40.0
2022-07-29T17:42:24.559Z,39.5
2022-07-29T17:47:24.544Z,39.0
2022-07-29T17:52:24.550Z,39.5
2022-07-29T17:57:24.548Z,39.5
2022-07-29T18:02:25.176Z,39.5
2022-07-29T18:07:24.548Z,40.0
2022-07-29T18:17:35.092Z,40.5
2022-07-29T18:22:24.550Z,41.0
2022-07-29T18:27:24.558Z,41.5
2022-07-29T18:32:28.959Z,41.5
2022-07-29T18:38:01.108Z,42.0
2022-07-29T18:42:24.565Z,42.5
2022-07-29T18:47:24.554Z,43.0
2022-07-29T18:52:24.556Z,43.5
2022-07-29T18:57:55.050Z,44.0
2022-07-29T19:02:24.704Z,44.5
2022-07-29T19:07:24.555Z,45.0
2022-07-29T19:12:24.566Z,45.5
2022-07-29T19:17:24.568Z,46.0
2022-07-29T19:22:24.565Z,46.5
2022-07-29T19:27:24.559Z,46.5
2022-07-29T19:32:25.483Z,47.0
2022-07-29T19:37:24.561Z,47.5
2022-07-29T19:42:24.559Z,47.5
2022-07-29T19:47:24.577Z,47.5
2022-07-29T19:52:24.598Z,47.5
2022-07-29T19:57:24.582Z,48.0
2022-07-29T20:02:24.641Z,48.5
2022-07-29T20:07:24.570Z,49.0
2022-07-29T20:12:24.575Z,49.0
2022-07-29T20:17:24.571Z,49.5
2022-07-29T20:22:24.563Z,49.5
2022-07-29T20:27:24.571Z,50.0
2022-07-29T20:32:24.584Z,50.0
2022-07-29T20:37:24.603Z,50.5
2022-07-29T20:42:24.583Z,51.0
2022-07-29T20:47:24.573Z,51.5
2022-07-29T20:52:24.585Z,51.5
2022-07-29T20:57:39.612Z,51.5
2022-07-29T21:02:24.601Z,52.0
2022-07-29T21:07:24.587Z,52.0
2022-07-29T21:12:24.585Z,52.5
2022-07-29T21:17:24.588Z,53.0
2022-07-29T21:22:24.623Z,53.0
2022-07-29T21:27:24.912Z,53.5
2022-07-29T21:32:29.742Z,53.5
2022-07-29T21:37:24.593Z,53.5
2022-07-29T21:42:24.602Z,54.0
2022-07-29T21:47:24.595Z,54.0
2022-07-29T21:52:24.642Z,54.5
2022-07-29T21:57:24.600Z,55.0
2022-07-29T22:02:24.595Z,55.0
2022-07-29T22:07:24.618Z,55.0
2022-07-29T22:12:24.601Z,55.5
2022-07-29T22:17:24.601Z,55.5
2022-07-29T22:22:24.609Z,55.5
2022-07-29T22:27:24.604Z,55.5
2022-07-29T22:32:24.604Z,56.0
2022-07-29T22:37:24.614Z,56.5
2022-07-29T22:42:24.602Z,57.0
2022-07-29T22:47:45.887Z,57.0
2022-07-29T22:52:24.612Z,57.5
2022-07-29T22:57:24.615Z,57.5
2022-07-29T23:02:24.624Z,58.0
2022-07-29T23:07:24.618Z,58.0
2022-07-29T23:12:24.613Z,58.5
2022-07-29T23:17:24.622Z,58.5
2022-07-29T23:22:24.629Z,59.0
2022-07-29T23:27:24.620Z,59.5
2022-07-29T23:32:24.619Z,59.5
2022-07-29T23:37:24.618Z,60.0
2022-07-29T23:42:24.621Z,60.5
2022-07-29T23:47:24.624Z,60.5
2022-07-29T23:52:24.623Z,61.0
2022-07-29T23:57:24.628Z,61.5
